createdAt,value
2018-10-07T00:00:03.307Z,17.84
2018-10-07T00:00:43.483Z,17.86
2018-10-07T00:01:23.956Z,17.94
2018-10-07T00:02:04.793Z,17.95
2018-10-07T00:02:45.554Z,18.07
2018-10-07T00:03:25.777Z,17.98
2018-10-07T00:04:06.829Z,18.14
2018-10-07T00:04:47.983Z,18.16
2018-10-07T00:05:28.157Z,18.1
2018-10-07T00:06:08.698Z,18.13
2018-10-07T00:06:49.155Z,18.13
2018-10-07T00:07:29.584Z,18.21
2018-10-07T00:08:09.984Z,18.19
2018-10-07T00:08:50.639Z,18.16
2018-10-07T00:09:30.929Z,18.19
2018-10-07T00:10:11.628Z,18.23
2018-10-07T00:10:52.214Z,18.25
2018-10-07T00:11:33.103Z,18.25
2018-10-07T00:12:13.653Z,18.31
2018-10-07T00:12:54.118Z,18.31
2018-10-07T00:13:34.795Z,18.26
2018-10-07T00:15:21.327Z,18.39
2018-10-07T00:16:03.123Z,18.26
2018-10-07T00:16:43.391Z,18.35
2018-10-07T00:17:23.730Z,18.31
2018-10-07T00:18:04.496Z,18.34
2018-10-07T00:18:45.257Z,18.36
2018-10-07T00:19:25.571Z,18.32
2018-10-07T00:20:06.031Z,18.34
2018-10-07T00:20:46.584Z,18.35
2018-10-07T00:21:27.220Z,18.38
2018-10-07T00:22:07.787Z,18.35
2018-10-07T00:22:48.416Z,18.31
2018-10-07T00:23:30.324Z,18.32
2018-10-07T00:24:10.988Z,18.35
2018-10-07T00:24:51.400Z,18.39
2018-10-07T00:25:31.782Z,18.34
2018-10-07T00:26:12.251Z,18.34
2018-10-07T00:26:52.785Z,18.35
2018-10-07T00:27:33.126Z,18.31
2018-10-07T00:28:13.589Z,18.29
2018-10-07T00:28:53.828Z,18.28
2018-10-07T00:29:34.328Z,18.32
2018-10-07T00:30:14.887Z,18.29
2018-10-07T00:30:55.635Z,18.29
2018-10-07T00:32:54.381Z,18.35
2018-10-07T00:33:34.987Z,18.32
2018-10-07T00:34:15.467Z,18.31
2018-10-07T00:34:55.981Z,18.35
2018-10-07T00:35:36.456Z,18.26
2018-10-07T00:36:16.842Z,18.38
2018-10-07T00:36:57.976Z,18.32
2018-10-07T00:37:38.421Z,18.36
2018-10-07T00:38:19.374Z,18.41
2018-10-07T00:38:59.962Z,18.38
2018-10-07T00:39:40.449Z,18.35
2018-10-07T00:40:21.429Z,18.36
2018-10-07T00:41:01.806Z,18.5
2018-10-07T00:41:42.233Z,18.49
2018-10-07T00:42:22.599Z,18.42
2018-10-07T00:43:03.030Z,18.42
2018-10-07T00:43:43.692Z,18.39
2018-10-07T00:44:24.147Z,18.44
2018-10-07T00:45:04.541Z,18.41
2018-10-07T00:45:44.996Z,18.35
2018-10-07T00:46:25.404Z,18.34
2018-10-07T00:47:05.822Z,18.29
2018-10-07T00:47:46.207Z,18.34
2018-10-07T00:48:26.730Z,18.31
2018-10-07T00:49:07.146Z,18.32
2018-10-07T00:49:47.531Z,18.31
2018-10-07T00:50:28.008Z,18.29
2018-10-07T00:51:08.381Z,18.26
2018-10-07T00:51:48.794Z,18.25
2018-10-07T00:52:29.207Z,18.35
2018-10-07T00:53:09.624Z,18.32
2018-10-07T00:53:50.016Z,18.36
2018-10-07T00:54:30.448Z,18.36
2018-10-07T00:56:45.426Z,18.35
2018-10-07T00:57:25.635Z,18.31
2018-10-07T00:58:05.945Z,18.39
2018-10-07T00:58:46.433Z,18.29
2018-10-07T00:59:27.090Z,18.35
2018-10-07T01:00:07.744Z,18.26
2018-10-07T01:00:48.241Z,18.26
2018-10-07T01:01:28.724Z,18.21
2018-10-07T01:02:09.136Z,18.11
2018-10-07T01:02:49.734Z,18.04
2018-10-07T01:03:30.032Z,18.04
2018-10-07T01:04:11.046Z,18.05
2018-10-07T01:04:51.586Z,18.07
2018-10-07T01:05:32.650Z,17.99
2018-10-07T01:06:12.844Z,17.96
2018-10-07T01:06:53.249Z,17.92
2018-10-07T01:07:33.614Z,17.94
2018-10-07T01:08:14.610Z,17.81
2018-10-07T01:08:55.110Z,17.6
2018-10-07T01:09:35.425Z,17.4
2018-10-07T01:10:15.844Z,17.43
2018-10-07T01:10:56.218Z,17.25
2018-10-07T01:13:08.993Z,17.15
2018-10-07T01:13:49.157Z,16.99
2018-10-07T01:14:29.588Z,17.03
2018-10-07T01:15:09.930Z,16.95
2018-10-07T01:15:50.371Z,16.9
2018-10-07T01:16:30.763Z,16.91
2018-10-07T01:17:11.554Z,16.82
2018-10-07T01:17:51.813Z,16.88
2018-10-07T01:18:32.369Z,16.84
2018-10-07T01:19:12.723Z,16.81
2018-10-07T01:19:53.175Z,16.84
2018-10-07T01:20:33.532Z,16.9
2018-10-07T01:21:13.993Z,16.88
2018-10-07T01:21:55.330Z,16.96
2018-10-07T01:23:52.133Z,16.99
2018-10-07T01:24:32.535Z,16.95
2018-10-07T01:25:12.953Z,16.9
2018-10-07T01:25:53.345Z,16.96
2018-10-07T01:26:34.110Z,16.88
2018-10-07T01:27:14.529Z,16.95
2018-10-07T01:27:54.833Z,16.95
2018-10-07T01:28:35.338Z,17.03
2018-10-07T01:29:15.767Z,17.05
2018-10-07T01:29:56.120Z,17.02
2018-10-07T01:30:36.527Z,16.96
2018-10-07T01:31:17.055Z,17.03
2018-10-07T01:31:57.364Z,16.98
2018-10-07T01:32:37.763Z,16.95
2018-10-07T01:33:18.146Z,16.96
2018-10-07T01:33:58.616Z,17
2018-10-07T01:34:39.016Z,17.03
2018-10-07T01:35:19.414Z,16.98
2018-10-07T01:35:59.951Z,17.05
2018-10-07T01:36:40.312Z,16.98
2018-10-07T01:37:20.706Z,16.92
2018-10-07T01:38:01.102Z,16.98
2018-10-07T01:38:41.528Z,17.03
2018-10-07T01:39:22.097Z,17.03
2018-10-07T01:40:02.451Z,16.96
2018-10-07T01:40:42.985Z,16.91
2018-10-07T01:41:23.228Z,16.95
2018-10-07T01:42:03.669Z,16.91
2018-10-07T01:44:20.420Z,16.78
2018-10-07T01:45:01.428Z,16.75
2018-10-07T01:45:41.714Z,16.66
2018-10-07T01:46:22.170Z,16.65
2018-10-07T01:47:02.569Z,16.5
2018-10-07T01:47:42.934Z,16.54
2018-10-07T01:48:23.403Z,16.45
2018-10-07T01:49:03.852Z,16.52
2018-10-07T01:49:44.261Z,16.52
2018-10-07T01:50:24.953Z,16.48
2018-10-07T01:51:05.306Z,16.47
2018-10-07T01:51:45.707Z,16.5
2018-10-07T01:52:26.401Z,16.44
2018-10-07T01:53:06.993Z,16.47
2018-10-07T01:53:47.466Z,16.44
2018-10-07T01:54:28.768Z,16.41
2018-10-07T01:55:08.438Z,16.37
2018-10-07T01:55:49.054Z,16.4
2018-10-07T01:56:29.368Z,16.4
2018-10-07T01:57:09.830Z,16.3
2018-10-07T01:57:50.231Z,16.32
2018-10-07T01:58:30.620Z,16.26
2018-10-07T01:59:11.050Z,16.29
2018-10-07T01:59:51.458Z,16.27
2018-10-07T02:00:31.923Z,16.27
2018-10-07T02:01:12.420Z,16.34
2018-10-07T02:01:52.818Z,16.32
2018-10-07T02:02:33.305Z,16.33
2018-10-07T02:03:13.666Z,16.32
2018-10-07T02:03:54.092Z,16.3
2018-10-07T02:04:34.602Z,16.27
2018-10-07T02:05:15.040Z,16.22
2018-10-07T02:05:55.353Z,16.23
2018-10-07T02:06:35.798Z,16.18
2018-10-07T02:07:16.676Z,16.23
2018-10-07T02:07:57.273Z,16.29
2018-10-07T02:08:37.548Z,16.32
2018-10-07T02:09:18.010Z,16.32
2018-10-07T02:09:58.429Z,16.33
2018-10-07T02:10:39.033Z,16.29
2018-10-07T02:11:19.414Z,16.32
2018-10-07T02:11:59.836Z,16.3
2018-10-07T02:17:02.803Z,16.42
2018-10-07T02:17:43.410Z,16.29
2018-10-07T02:18:24.163Z,16.29
2018-10-07T02:19:04.858Z,16.22
2018-10-07T02:19:47.077Z,16.26
2018-10-07T02:20:27.588Z,16.29
2018-10-07T02:21:07.977Z,16.13
2018-10-07T02:21:48.378Z,16.18
2018-10-07T02:22:28.847Z,16.3
2018-10-07T02:23:09.197Z,16.3
2018-10-07T02:23:49.596Z,16.32
2018-10-07T02:24:30.000Z,16.26
2018-10-07T02:25:10.440Z,16.33
2018-10-07T02:26:49.873Z,16.27
2018-10-07T02:27:30.163Z,16.3
2018-10-07T02:28:10.390Z,16.32
2018-10-07T02:28:50.744Z,16.34
2018-10-07T02:29:31.182Z,16.36
2018-10-07T02:30:11.648Z,16.4
2018-10-07T02:30:52.028Z,16.3
2018-10-07T02:31:32.429Z,16.29
2018-10-07T02:32:12.865Z,16.3
2018-10-07T02:32:53.302Z,16.36
2018-10-07T02:35:06.114Z,16.36
2018-10-07T02:35:48.189Z,16.34
2018-10-07T02:36:29.046Z,16.29
2018-10-07T02:37:09.548Z,16.26
2018-10-07T02:37:49.996Z,16.17
2018-10-07T02:38:30.484Z,16.26
2018-10-07T02:39:10.976Z,16.17
2018-10-07T02:39:51.340Z,16.06
2018-10-07T02:40:31.762Z,16.14
2018-10-07T02:41:12.161Z,16.04
2018-10-07T02:41:52.589Z,16.08
2018-10-07T02:42:33.507Z,16.11
2018-10-07T02:43:14.474Z,16.1
2018-10-07T02:43:54.929Z,16.11
2018-10-07T02:44:35.295Z,16.07
2018-10-07T02:45:15.715Z,16.08
2018-10-07T02:45:56.342Z,16.06
2018-10-07T02:46:36.806Z,16.1
2018-10-07T02:47:17.429Z,16.07
2018-10-07T02:47:57.981Z,16.07
2018-10-07T02:48:38.355Z,16.07
2018-10-07T02:49:18.745Z,16.06
2018-10-07T02:49:59.236Z,16.06
2018-10-07T02:50:39.946Z,16.16
2018-10-07T02:51:20.301Z,16.07
2018-10-07T02:54:17.176Z,16.1
2018-10-07T02:54:59.738Z,16.03
2018-10-07T02:55:40.084Z,16.11
2018-10-07T02:56:20.542Z,15.95
2018-10-07T02:57:01.021Z,15.93
2018-10-07T02:57:41.412Z,16.01
2018-10-07T02:58:21.726Z,15.98
2018-10-07T02:59:02.216Z,15.91
2018-10-07T02:59:42.627Z,15.95
2018-10-07T03:00:23.023Z,15.92
2018-10-07T03:01:03.378Z,15.96
2018-10-07T03:01:43.797Z,16.01
2018-10-07T03:02:24.341Z,15.98
2018-10-07T03:03:04.897Z,15.93
2018-10-07T03:03:45.214Z,15.91
2018-10-07T03:04:25.822Z,15.93
2018-10-07T03:05:06.078Z,15.96
2018-10-07T03:05:47.144Z,15.93
2018-10-07T03:06:27.335Z,15.96
2018-10-07T03:07:08.008Z,15.92
2018-10-07T03:07:49.762Z,15.89
2018-10-07T03:08:28.956Z,15.89
2018-10-07T03:09:10.681Z,15.93
2018-10-07T03:09:51.360Z,15.88
2018-10-07T03:10:35.346Z,15.95
2018-10-07T03:11:15.328Z,15.92
2018-10-07T03:11:56.243Z,15.93
2018-10-07T03:12:37.029Z,15.95
2018-10-07T03:13:17.622Z,15.96
2018-10-07T03:13:58.177Z,15.96
2018-10-07T03:14:38.832Z,15.93
2018-10-07T03:15:19.045Z,16.07
2018-10-07T03:15:59.459Z,16.06
2018-10-07T03:16:39.916Z,15.89
2018-10-07T03:17:20.323Z,15.92
2018-10-07T03:18:00.725Z,15.96
2018-10-07T03:18:41.073Z,16.01
2018-10-07T03:19:21.746Z,16.06
2018-10-07T03:20:02.112Z,16.06
2018-10-07T03:20:42.551Z,16.1
2018-10-07T03:21:22.926Z,16.06
2018-10-07T03:22:04.206Z,16.07
2018-10-07T03:22:44.564Z,16.1
2018-10-07T03:23:24.953Z,16.08
2018-10-07T03:24:06.102Z,16.1
2018-10-07T03:24:45.816Z,16.08
2018-10-07T03:25:26.240Z,16.13
2018-10-07T03:26:06.725Z,16.1
2018-10-07T03:26:47.024Z,16.17
2018-10-07T03:27:27.508Z,16.17
2018-10-07T03:28:08.246Z,16.27
2018-10-07T03:28:48.704Z,16.18
2018-10-07T03:29:29.302Z,16.25
2018-10-07T03:30:09.647Z,16.26
2018-10-07T03:30:50.042Z,16.3
2018-10-07T03:31:30.477Z,16.29
2018-10-07T03:32:11.073Z,16.26
2018-10-07T03:32:51.429Z,16.27
2018-10-07T03:33:31.825Z,16.4
2018-10-07T03:34:12.380Z,16.32
2018-10-07T03:34:52.783Z,16.3
2018-10-07T03:35:33.246Z,16.26
2018-10-07T03:36:13.763Z,16.34
2018-10-07T03:36:54.087Z,16.42
2018-10-07T03:37:34.515Z,16.34
2018-10-07T03:38:15.255Z,16.4
2018-10-07T03:38:55.676Z,16.37
2018-10-07T03:39:36.097Z,16.36
2018-10-07T03:40:17.323Z,16.44
2018-10-07T03:40:57.727Z,16.45
2018-10-07T03:41:38.302Z,16.42
2018-10-07T03:42:18.592Z,16.45
2018-10-07T03:42:59.243Z,16.44
2018-10-07T03:43:39.801Z,16.5
2018-10-07T03:44:20.175Z,16.47
2018-10-07T03:45:00.602Z,16.48
2018-10-07T03:45:41.012Z,16.55
2018-10-07T03:46:21.419Z,16.47
2018-10-07T03:47:01.890Z,16.5
2018-10-07T03:49:15.588Z,16.6
2018-10-07T03:49:55.120Z,16.54
2018-10-07T03:50:35.536Z,16.52
2018-10-07T03:51:15.939Z,16.57
2018-10-07T03:51:56.365Z,16.55
2018-10-07T03:52:36.760Z,16.57
2018-10-07T03:53:17.801Z,16.63
2018-10-07T03:53:58.184Z,16.59
2018-10-07T03:54:38.606Z,16.55
2018-10-07T03:55:19.010Z,16.59
2018-10-07T03:55:59.455Z,16.52
2018-10-07T04:00:38.594Z,16.47
2018-10-07T04:01:24.499Z,16.5
2018-10-07T04:02:04.796Z,16.54
2018-10-07T04:02:45.296Z,16.48
2018-10-07T04:03:25.517Z,16.5
2018-10-07T04:06:30.765Z,16.52
2018-10-07T04:07:10.198Z,16.5
2018-10-07T04:07:50.621Z,16.41
2018-10-07T04:08:31.054Z,16.48
2018-10-07T04:09:11.452Z,16.5
2018-10-07T04:09:51.949Z,16.48
2018-10-07T04:10:32.418Z,16.45
2018-10-07T04:11:12.708Z,16.55
2018-10-07T04:11:53.178Z,16.55
2018-10-07T04:12:33.482Z,16.52
2018-10-07T04:13:14.018Z,16.62
2018-10-07T04:13:54.399Z,16.57
2018-10-07T04:14:34.948Z,16.66
2018-10-07T04:15:15.193Z,16.63
2018-10-07T04:15:55.667Z,16.69
2018-10-07T04:16:35.990Z,16.66
2018-10-07T04:17:16.431Z,16.65
2018-10-07T04:17:56.885Z,16.77
2018-10-07T04:18:37.303Z,16.66
2018-10-07T04:19:17.685Z,16.7
2018-10-07T04:19:58.157Z,16.72
2018-10-07T04:20:38.712Z,16.69
2018-10-07T04:21:19.234Z,16.77
2018-10-07T04:21:59.440Z,16.7
2018-10-07T04:22:40.412Z,16.7
2018-10-07T04:23:21.981Z,16.72
2018-10-07T04:24:03.549Z,16.7
2018-10-07T04:24:43.972Z,16.77
2018-10-07T04:25:24.636Z,16.78
2018-10-07T04:26:04.981Z,16.65
2018-10-07T04:26:45.400Z,16.7
2018-10-07T04:27:25.919Z,16.75
2018-10-07T04:28:06.264Z,16.8
2018-10-07T05:09:10.509Z,15.58
2018-10-07T05:09:51.236Z,15.56
2018-10-07T05:10:32.990Z,15.56
2018-10-07T05:11:13.449Z,15.56
2018-10-07T05:11:54.017Z,15.51
2018-10-07T05:12:34.525Z,15.48
2018-10-07T05:13:14.809Z,15.53
2018-10-07T05:13:55.313Z,15.55
2018-10-07T05:14:35.695Z,15.52
2018-10-07T05:15:16.733Z,15.43
2018-10-07T05:15:57.097Z,15.43
2018-10-07T05:16:37.515Z,15.41
2018-10-07T05:17:18.790Z,15.46
2018-10-07T05:17:59.222Z,15.37
2018-10-07T05:18:39.921Z,15.38
2018-10-07T05:19:20.943Z,15.46
2018-10-07T05:20:01.723Z,15.37
2018-10-07T05:20:42.873Z,15.53
2018-10-07T05:21:23.309Z,15.48
2018-10-07T05:22:04.058Z,15.48
2018-10-07T05:22:45.482Z,15.48
2018-10-07T05:23:26.012Z,15.52
2018-10-07T05:24:06.586Z,15.52
2018-10-07T05:24:47.204Z,15.52
2018-10-07T05:25:28.090Z,15.51
2018-10-07T05:26:08.468Z,15.62
2018-10-07T05:26:49.358Z,15.62
2018-10-07T05:27:29.916Z,15.64
2018-10-07T05:28:10.515Z,15.58
2018-10-07T05:28:51.001Z,15.56
2018-10-07T05:29:33.047Z,15.62
2018-10-07T05:30:14.342Z,15.6
2018-10-07T05:30:54.666Z,15.67
2018-10-07T05:31:35.090Z,15.7
2018-10-07T05:32:15.576Z,15.68
2018-10-07T05:32:56.209Z,15.71
2018-10-07T05:33:36.930Z,15.7
2018-10-07T05:34:18.232Z,15.67
2018-10-07T05:35:01.410Z,15.66
2018-10-07T05:35:42.644Z,15.71
2018-10-07T05:36:22.983Z,15.7
2018-10-07T05:37:03.651Z,15.68
2018-10-07T05:37:44.850Z,15.67
2018-10-07T05:38:25.467Z,15.71
2018-10-07T05:39:06.899Z,15.62
2018-10-07T05:39:46.578Z,15.62
2018-10-07T05:40:26.943Z,15.66
2018-10-07T05:41:07.527Z,15.59
2018-10-07T05:41:48.091Z,15.62
2018-10-07T05:42:28.600Z,15.64
2018-10-07T05:46:53.464Z,15.68
2018-10-07T05:47:31.795Z,15.77
2018-10-07T05:48:12.605Z,15.73
2018-10-07T05:48:54.120Z,15.81
2018-10-07T05:49:34.370Z,15.78
2018-10-07T05:50:14.825Z,15.77
2018-10-07T05:50:55.266Z,15.81
2018-10-07T05:51:36.282Z,15.85
2018-10-07T05:52:16.717Z,15.78
2018-10-07T05:52:57.022Z,15.78
2018-10-07T05:53:38.012Z,15.84
2018-10-07T05:54:19.172Z,15.89
2018-10-07T05:54:59.581Z,15.85
2018-10-07T05:55:40.130Z,15.81
2018-10-07T05:56:21.670Z,15.84
2018-10-07T05:57:02.255Z,15.84
2018-10-07T05:57:42.950Z,15.81
2018-10-07T06:00:36.881Z,15.96
2018-10-07T06:02:06.952Z,15.95
2018-10-07T06:02:47.402Z,15.99
2018-10-07T06:03:28.862Z,16.01
2018-10-07T06:04:08.956Z,15.93
2018-10-07T06:04:49.396Z,15.98
2018-10-07T06:05:29.833Z,15.86
2018-10-07T06:06:11.009Z,15.93
2018-10-07T06:06:51.562Z,15.92
2018-10-07T06:07:31.958Z,15.89
2018-10-07T06:08:12.372Z,15.89
2018-10-07T06:08:53.370Z,15.84
2018-10-07T06:09:34.162Z,15.84
2018-10-07T06:10:15.610Z,15.81
2018-10-07T06:10:56.097Z,15.76
2018-10-07T06:11:36.488Z,15.85
2018-10-07T06:12:17.109Z,15.84
2018-10-07T06:12:58.178Z,15.81
2018-10-07T06:13:38.648Z,15.81
2018-10-07T06:14:19.028Z,15.77
2018-10-07T06:14:59.726Z,15.8
2018-10-07T06:15:40.065Z,15.84
2018-10-07T06:16:20.584Z,15.73
2018-10-07T06:17:01.029Z,15.81
2018-10-07T06:17:41.417Z,15.78
2018-10-07T06:22:26.266Z,15.6
2018-10-07T06:23:09.721Z,15.64
2018-10-07T06:23:50.869Z,15.59
2018-10-07T06:24:31.231Z,15.59
2018-10-07T06:25:12.027Z,15.55
2018-10-07T06:25:52.514Z,15.48
2018-10-07T06:26:33.265Z,15.59
2018-10-07T06:27:14.245Z,15.62
2018-10-07T06:27:54.566Z,15.59
2018-10-07T06:28:35.886Z,15.66
2018-10-07T06:29:16.383Z,15.64
2018-10-07T06:29:57.388Z,15.59
2018-10-07T06:30:37.595Z,15.62
2018-10-07T06:31:19.393Z,15.59
2018-10-07T06:31:59.940Z,15.64
2018-10-07T06:32:40.161Z,15.64
2018-10-07T06:33:21.374Z,15.53
2018-10-07T06:34:01.759Z,15.52
2018-10-07T06:34:42.343Z,15.46
2018-10-07T06:35:24.078Z,15.44
2018-10-07T06:36:04.603Z,15.38
2018-10-07T06:36:45.004Z,15.38
2018-10-07T06:37:25.297Z,15.33
2018-10-07T06:38:05.776Z,15.4
2018-10-07T06:38:46.358Z,15.28
2018-10-07T06:39:27.112Z,15.33
2018-10-07T06:40:07.513Z,15.31
2018-10-07T06:40:48.065Z,15.15
2018-10-07T06:41:28.592Z,15.16
2018-10-07T06:42:09.099Z,15.13
2018-10-07T06:42:49.731Z,15.2
2018-10-07T06:43:30.858Z,15.23
2018-10-07T06:44:11.144Z,15.23
2018-10-07T06:44:51.919Z,15.2
2018-10-07T06:45:32.058Z,15.3
2018-10-07T06:46:12.513Z,15.19
2018-10-07T06:46:53.043Z,15.19
2018-10-07T06:47:34.185Z,15.28
2018-10-07T06:48:14.355Z,15.15
2018-10-07T06:48:55.845Z,15.13
2018-10-07T06:49:36.383Z,15.12
2018-10-07T06:50:18.457Z,15.04
2018-10-07T06:51:00.223Z,15.03
2018-10-07T06:51:41.731Z,15.03
2018-10-07T06:52:21.260Z,15.13
2018-10-07T06:53:02.309Z,15.01
2018-10-07T06:53:42.667Z,15.01
2018-10-07T06:54:23.135Z,15.01
2018-10-07T06:55:03.734Z,15.04
2018-10-07T06:55:44.131Z,15.03
2018-10-07T06:56:24.488Z,14.97
2018-10-07T06:57:05.187Z,14.87
2018-10-07T06:57:45.853Z,14.85
2018-10-07T06:58:26.288Z,14.75
2018-10-07T06:59:06.981Z,14.72
2018-10-07T06:59:47.453Z,14.66
2018-10-07T07:00:27.857Z,14.67
2018-10-07T07:01:08.321Z,14.66
2018-10-07T07:01:48.938Z,14.75
2018-10-07T07:02:29.333Z,14.71
2018-10-07T07:03:09.754Z,14.71
2018-10-07T07:03:50.208Z,14.78
2018-10-07T07:04:30.880Z,14.67
2018-10-07T07:05:11.217Z,14.71
2018-10-07T07:05:51.774Z,14.67
2018-10-07T07:06:32.899Z,14.69
2018-10-07T07:07:13.315Z,14.78
2018-10-07T07:07:53.826Z,14.75
2018-10-07T07:08:34.891Z,14.67
2018-10-07T07:09:15.453Z,14.67
2018-10-07T07:09:55.902Z,14.69
2018-10-07T07:10:36.743Z,14.67
2018-10-07T07:11:17.069Z,14.72
2018-10-07T07:11:57.457Z,14.61
2018-10-07T07:12:37.872Z,14.66
2018-10-07T07:13:19.058Z,14.72
2018-10-07T07:13:59.693Z,14.63
2018-10-07T07:14:40.339Z,14.71
2018-10-07T07:15:20.630Z,14.72
2018-10-07T07:16:01.633Z,14.78
2018-10-07T07:16:42.270Z,14.9
2018-10-07T07:17:22.724Z,14.82
2018-10-07T07:18:03.397Z,14.85
2018-10-07T07:18:43.782Z,14.83
2018-10-07T07:19:24.430Z,14.82
2018-10-07T07:20:05.131Z,14.69
2018-10-07T07:20:45.686Z,14.72
2018-10-07T07:21:26.547Z,14.78
2018-10-07T07:22:07.120Z,14.83
2018-10-07T07:25:27.472Z,14.94
2018-10-07T07:26:09.235Z,15.04
2018-10-07T07:26:51.373Z,14.97
2018-10-07T07:27:30.366Z,15.01
2018-10-07T07:28:10.776Z,14.98
2018-10-07T07:28:51.246Z,14.97
2018-10-07T07:29:31.816Z,14.97
2018-10-07T07:30:12.412Z,14.97
2018-10-07T07:30:52.864Z,14.94
2018-10-07T07:31:33.667Z,14.97
2018-10-07T07:32:14.359Z,15.03
2018-10-07T07:32:55.348Z,14.97
2018-10-07T07:33:35.747Z,14.94
2018-10-07T07:34:16.419Z,14.95
2018-10-07T07:34:57.211Z,15
2018-10-07T07:35:37.869Z,14.97
2018-10-07T07:36:18.445Z,14.97
2018-10-07T07:36:58.950Z,15.04
2018-10-07T07:37:39.607Z,14.87
2018-10-07T07:38:20.014Z,14.87
2018-10-07T07:39:00.603Z,14.86
2018-10-07T07:39:40.951Z,14.87
2018-10-07T07:40:22.369Z,14.91
2018-10-07T07:41:02.566Z,14.91
2018-10-07T07:41:43.452Z,14.91
2018-10-07T07:42:23.959Z,14.98
2018-10-07T07:43:04.523Z,14.93
2018-10-07T07:43:45.121Z,14.87
2018-10-07T07:44:25.651Z,14.9
2018-10-07T07:45:06.019Z,14.8
2018-10-07T07:45:47.157Z,14.79
2018-10-07T07:46:27.619Z,14.82
2018-10-07T07:47:08.190Z,14.74
2018-10-07T07:47:48.826Z,14.72
2018-10-07T07:48:29.215Z,14.75
2018-10-07T07:49:09.716Z,14.64
2018-10-07T07:49:50.466Z,14.53
2018-10-07T07:50:30.944Z,14.49
2018-10-07T07:51:11.415Z,14.48
2018-10-07T07:51:51.938Z,14.49
2018-10-07T07:52:33.035Z,14.49
2018-10-07T07:53:14.638Z,14.59
2018-10-07T07:53:55.013Z,14.6
2018-10-07T07:54:35.627Z,14.49
2018-10-07T07:55:16.026Z,14.52
2018-10-07T07:55:56.486Z,14.56
2018-10-07T07:56:36.955Z,14.52
2018-10-07T07:57:19.943Z,14.61
2018-10-07T07:58:00.582Z,14.46
2018-10-07T07:58:40.943Z,14.46
2018-10-07T07:59:21.423Z,14.48
2018-10-07T08:00:02.267Z,14.6
2018-10-07T08:00:42.689Z,14.57
2018-10-07T08:01:23.087Z,14.63
2018-10-07T08:02:03.491Z,14.53
2018-10-07T08:02:44.152Z,14.42
2018-10-07T08:03:24.622Z,14.42
2018-10-07T08:04:05.121Z,14.38
2018-10-07T08:04:45.688Z,14.39
2018-10-07T08:05:25.983Z,14.31
2018-10-07T08:07:45.155Z,14.24
2018-10-07T08:08:24.483Z,14.26
2018-10-07T08:09:05.849Z,14.23
2018-10-07T08:09:46.272Z,14.29
2018-10-07T08:10:26.939Z,14.19
2018-10-07T08:11:07.794Z,14.24
2018-10-07T08:11:48.492Z,14.39
2018-10-07T08:12:29.042Z,14.34
2018-10-07T08:13:09.419Z,14.31
2018-10-07T08:13:50.165Z,14.3
2018-10-07T08:14:30.619Z,14.27
2018-10-07T08:15:12.015Z,14.34
2018-10-07T08:18:22.072Z,14.3
2018-10-07T08:19:08.164Z,14.35
2018-10-07T08:19:48.631Z,14.27
2018-10-07T08:20:29.117Z,14.34
2018-10-07T08:21:09.554Z,14.26
2018-10-07T08:21:50.056Z,14.26
2018-10-07T08:22:30.370Z,14.31
2018-10-07T08:23:10.811Z,14.17
2018-10-07T08:23:51.232Z,14.31
2018-10-07T08:24:32.430Z,14.36
2018-10-07T08:25:12.946Z,14.31
2018-10-07T08:25:54.493Z,14.17
2018-10-07T08:26:34.914Z,14.13
2018-10-07T08:27:15.375Z,14.31
2018-10-07T08:27:56.265Z,14.31
2018-10-07T08:28:37.392Z,14.39
2018-10-07T08:29:17.784Z,14.3
2018-10-07T08:30:01.908Z,14.41
2018-10-07T08:30:42.654Z,14.39
2018-10-07T08:31:23.131Z,14.31
2018-10-07T08:32:03.603Z,14.42
2018-10-07T08:32:44.573Z,14.34
2018-10-07T08:33:25.105Z,14.35
2018-10-07T08:34:06.217Z,14.35
2018-10-07T08:34:46.953Z,14.3
2018-10-07T08:35:27.528Z,14.29
2018-10-07T08:36:08.205Z,14.3
2018-10-07T08:36:49.325Z,14.38
2018-10-07T08:37:30.034Z,14.39
2018-10-07T08:38:12.233Z,14.44
2018-10-07T08:38:52.977Z,14.42
2018-10-07T08:39:33.407Z,14.57
2018-10-07T08:40:13.865Z,14.52
2018-10-07T08:40:55.335Z,14.61
2018-10-07T08:41:35.648Z,14.56
2018-10-07T08:42:15.947Z,14.49
2018-10-07T08:42:56.760Z,14.49
2018-10-07T08:43:37.909Z,14.46
2018-10-07T08:44:19.071Z,14.53
2018-10-07T08:44:59.648Z,14.42
2018-10-07T08:45:40.315Z,14.44
2018-10-07T08:46:21.111Z,14.36
2018-10-07T08:47:02.142Z,14.42
2018-10-07T08:47:42.602Z,14.48
2018-10-07T08:48:23.550Z,14.48
2018-10-07T08:49:04.462Z,14.48
2018-10-07T08:49:44.910Z,14.6
2018-10-07T08:50:25.620Z,14.57
2018-10-07T08:51:07.950Z,14.45
2018-10-07T08:51:48.405Z,14.53
2018-10-07T08:52:29.934Z,14.44
2018-10-07T08:53:10.541Z,14.56
2018-10-07T08:53:51.670Z,14.61
2018-10-07T08:54:32.273Z,14.52
2018-10-07T08:55:12.659Z,14.54
2018-10-07T08:55:53.503Z,14.59
2018-10-07T08:56:34.846Z,14.59
2018-10-07T08:57:15.463Z,14.63
2018-10-07T08:57:55.839Z,14.64
2018-10-07T08:58:37.283Z,14.63
2018-10-07T08:59:17.930Z,14.72
2018-10-07T08:59:58.741Z,14.72
2018-10-07T09:00:39.460Z,14.79
2018-10-07T09:01:20.052Z,14.6
2018-10-07T09:02:00.478Z,14.66
2018-10-07T09:02:41.059Z,14.72
2018-10-07T09:03:21.448Z,14.66
2018-10-07T09:04:02.183Z,14.75
2018-10-07T09:04:42.789Z,14.78
2018-10-07T09:05:24.795Z,14.85
2018-10-07T09:06:05.313Z,14.85
2018-10-07T09:06:46.015Z,14.94
2018-10-07T09:07:26.608Z,14.93
2018-10-07T09:08:07.140Z,15
2018-10-07T09:08:48.771Z,15
2018-10-07T09:09:29.965Z,15
2018-10-07T09:10:10.393Z,14.97
2018-10-07T09:10:51.157Z,14.91
2018-10-07T09:12:31.948Z,15
2018-10-07T09:13:16.556Z,15.01
2018-10-07T09:13:57.935Z,14.9
2018-10-07T09:14:38.504Z,14.93
2018-10-07T09:15:19.866Z,14.9
2018-10-07T09:16:02.960Z,15.01
2018-10-07T09:16:44.325Z,15
2018-10-07T09:17:25.589Z,14.97
2018-10-07T09:18:05.964Z,14.95
2018-10-07T09:18:48.860Z,14.91
2018-10-07T09:19:30.332Z,14.85
2018-10-07T09:20:10.544Z,14.94
2018-10-07T09:20:51.517Z,15.04
2018-10-07T09:21:32.805Z,15.09
2018-10-07T09:22:13.814Z,15.01
2018-10-07T09:22:54.195Z,15.01
2018-10-07T09:26:12.614Z,15.22
2018-10-07T09:28:25.987Z,15.31
2018-10-07T09:31:35.996Z,15.4
2018-10-07T09:39:06.287Z,15.68
2018-10-07T09:40:07.311Z,15.66
2018-10-07T09:40:47.847Z,15.66
2018-10-07T09:41:28.348Z,15.64
2018-10-07T09:42:08.738Z,15.59
2018-10-07T09:42:52.422Z,15.49
2018-10-07T09:43:33.411Z,15.48
2018-10-07T09:44:13.586Z,15.62
2018-10-07T09:44:55.389Z,15.64
2018-10-07T09:45:35.807Z,15.7
2018-10-07T09:46:16.207Z,15.78
2018-10-07T09:46:56.593Z,15.81
2018-10-07T09:47:37.027Z,15.93
2018-10-07T09:48:17.432Z,15.91
2018-10-07T09:48:57.881Z,16.06
2018-10-07T09:49:38.401Z,16.08
2018-10-07T09:50:19.464Z,16.08
2018-10-07T09:50:59.523Z,16.14
2018-10-07T09:51:40.122Z,16.06
2018-10-07T09:52:21.957Z,16.11
2018-10-07T09:53:02.441Z,16.08
2018-10-07T09:53:42.938Z,16.18
2018-10-07T09:54:23.358Z,16.23
2018-10-07T09:55:04.511Z,16.22
2018-10-07T09:55:45.125Z,16.26
2018-10-07T09:56:26.845Z,16.27
2018-10-07T09:57:07.318Z,16.44
2018-10-07T09:57:48.082Z,16.4
2018-10-07T09:58:28.959Z,16.37
2018-10-07T09:59:09.297Z,16.4
2018-10-07T09:59:50.963Z,16.36
2018-10-07T10:00:32.280Z,16.34
2018-10-07T10:01:12.873Z,16.36
2018-10-07T10:01:53.323Z,16.36
2018-10-07T10:02:33.671Z,16.47
2018-10-07T10:03:14.277Z,16.48
2018-10-07T10:03:54.609Z,16.5
2018-10-07T10:04:35.025Z,16.51
2018-10-07T10:05:15.491Z,16.48
2018-10-07T10:05:56.014Z,16.3
2018-10-07T10:06:36.642Z,16.36
2018-10-07T10:07:17.358Z,16.42
2018-10-07T10:07:57.871Z,16.51
2018-10-07T10:08:38.315Z,16.41
2018-10-07T10:09:19.297Z,16.5
2018-10-07T10:14:43.436Z,16.84
2018-10-07T10:18:07.602Z,17.05
2018-10-07T10:21:26.303Z,17.12
2018-10-07T10:22:11.645Z,17.21
2018-10-07T10:22:51.616Z,17.25
2018-10-07T10:23:32.173Z,17.33
2018-10-07T10:24:13.119Z,17.18
2018-10-07T10:24:53.035Z,17.32
2018-10-07T10:25:33.468Z,17.25
2018-10-07T10:26:13.882Z,17.35
2018-10-07T10:26:54.318Z,17.45
2018-10-07T10:27:34.734Z,17.53
2018-10-07T10:28:15.173Z,17.54
2018-10-07T10:28:55.791Z,17.49
2018-10-07T10:29:36.262Z,17.51
2018-10-07T11:06:53.297Z,17.87
2018-10-07T11:07:35.440Z,17.87
2018-10-07T11:08:15.621Z,17.79
2018-10-07T11:08:56.077Z,17.71
2018-10-07T11:09:36.499Z,17.66
2018-10-07T11:10:16.873Z,17.71